Time;durP1;ratioP1;P1;durP2;ratioP2;P2;SDS_P1;SDS_P2;PMS_P1;PMS_P2;Temp;Humidity;BMP_temperature;BMP_pressure;BME280_temperature;BME280_humidity;BME280_pressure;Samples;Min_cycle;Max_cycle;Signal;HPM_P1;HPM_P2
2023/12/10 00:01:51;;;;;;;29.40;4.00;;;;;;;7.70;100.00;98688.88;4963997;28;20050;-82
2023/12/10 00:04:18;;;;;;;22.77;2.65;;;;;;;7.71;100.00;98702.94;4930823;28;20414;-82
2023/12/10 00:06:45;;;;;;;13.63;2.55;;;;;;;7.71;100.00;98710.84;4955585;28;20057;-82
2023/12/10 00:09:12;;;;;;;21.90;3.03;;;;;;;7.69;100.00;98724.22;4954078;28;20690;-82
2023/12/10 00:11:39;;;;;;;27.25;3.10;;;;;;;7.69;100.00;98712.84;4947903;28;20054;-83
2023/12/10 00:14:06;;;;;;;41.08;4.80;;;;;;;7.69;100.00;98713.66;4933039;28;20042;-83
2023/12/10 00:16:33;;;;;;;26.92;3.50;;;;;;;7.68;100.00;98716.44;4946904;28;20071;-83
2023/12/10 00:19:00;;;;;;;31.48;4.38;;;;;;;7.69;100.00;98724.22;4945739;28;20498;-83
2023/12/10 00:21:27;;;;;;;32.88;4.07;;;;;;;7.70;100.00;98732.97;4946115;28;20086;-83
2023/12/10 00:23:54;;;;;;;25.48;4.13;;;;;;;7.71;100.00;98740.78;4947697;28;20050;-83
2023/12/10 00:26:20;;;;;;;21.45;4.78;;;;;;;7.70;100.00;98740.91;4952217;28;20218;-83
2023/12/10 00:28:47;;;;;;;28.92;4.18;;;;;;;7.71;100.00;98748.69;4950051;28;20101;-83
2023/12/10 00:31:14;;;;;;;42.75;3.75;;;;;;;7.73;100.00;98752.00;4932597;28;20122;-83
2023/12/10 00:33:41;;;;;;;44.25;5.47;;;;;;;7.75;100.00;98760.63;4950394;28;20846;-83
2023/12/10 00:36:08;;;;;;;26.52;4.32;;;;;;;7.77;100.00;98765.78;4948134;28;20042;-83
2023/12/10 00:38:37;;;;;;;43.20;6.30;;;;;;;7.78;100.00;98768.25;4929775;28;20051;-83
2023/12/10 00:41:05;;;;;;;23.85;3.63;;;;;;;7.79;100.00;98783.16;4931614;28;20055;-83
2023/12/10 00:43:31;;;;;;;18.52;2.95;;;;;;;7.78;100.00;98783.28;4936503;28;23085;-83
2023/12/10 00:45:58;;;;;;;28.67;3.05;;;;;;;7.78;100.00;98786.75;4931293;28;20122;-83
2023/12/10 00:48:25;;;;;;;35.78;5.35;;;;;;;7.79;100.00;98796.38;4959588;28;20058;-83
2023/12/10 00:50:52;;;;;;;44.30;6.20;;;;;;;7.78;100.00;98807.09;4927884;28;20051;-83
2023/12/10 00:53:19;;;;;;;41.47;4.85;;;;;;;7.78;100.00;98805.25;4933712;28;20494;-83
2023/12/10 00:55:46;;;;;;;46.22;4.13;;;;;;;7.78;100.00;98813.19;4923202;28;20042;-83
2023/12/10 00:58:14;;;;;;;33.42;4.35;;;;;;;7.76;100.00;98816.94;4946880;28;20117;-83
2023/12/10 01:00:41;;;;;;;30.42;4.15;;;;;;;7.78;100.00;98823.75;4938922;28;20051;-83
2023/12/10 01:03:08;;;;;;;30.67;3.58;;;;;;;7.78;100.00;98823.75;4945911;28;20565;-83
2023/12/10 01:05:35;;;;;;;36.38;4.13;;;;;;;7.78;100.00;98823.75;4936686;28;20054;-82
2023/12/10 01:08:03;;;;;;;34.50;3.75;;;;;;;7.79;100.00;98840.47;4948849;28;20662;-83
2023/12/10 01:10:30;;;;;;;43.38;5.60;;;;;;;7.79;100.00;98841.31;4962815;28;20495;-83
2023/12/10 01:12:57;;;;;;;42.20;4.68;;;;;;;7.80;100.00;98848.25;4932394;28;20196;-83
2023/12/10 01:15:29;;;;;;;30.70;3.63;;;;;;;7.82;100.00;98861.34;4936793;28;20620;-83
2023/12/10 01:18:03;;;;;;;30.80;3.30;;;;;;;7.82;100.00;98869.25;4920276;28;20486;-83
2023/12/10 01:20:31;;;;;;;38.78;4.13;;;;;;;7.85;100.00;98870.78;4948957;28;20486;-83
2023/12/10 01:22:59;;;;;;;32.45;3.47;;;;;;;7.86;100.00;98875.94;4949865;28;20129;-83
2023/12/10 01:25:26;;;;;;;41.22;5.55;;;;;;;7.86;100.00;98877.72;4954974;28;20074;-83
2023/12/10 01:27:53;;;;;;;29.58;3.30;;;;;;;7.86;100.00;98878.59;4938489;28;20050;-83
2023/12/10 01:30:24;;;;;;;29.75;3.38;;;;;;;7.85;100.00;98879.53;4939890;28;20055;-83
2023/12/10 01:32:56;;;;;;;32.40;5.15;;;;;;;7.81;100.00;98886.94;4940067;28;20571;-83
2023/12/10 01:35:23;;;;;;;44.80;4.63;;;;;;;7.83;100.00;98897.34;4964288;28;20402;-83
2023/12/10 01:37:51;;;;;;;44.30;5.53;;;;;;;7.82;100.00;98887.75;4940323;28;20460;-83
2023/12/10 01:40:19;;;;;;;39.80;5.05;;;;;;;7.81;100.00;98886.94;4941261;28;20051;-83
2023/12/10 01:42:46;;;;;;;38.28;4.60;;;;;;;7.82;100.00;98901.81;4924524;28;20046;-83
2023/12/10 01:45:13;;;;;;;49.10;4.95;;;;;;;7.82;100.00;98909.72;4957885;28;20050;-83
2023/12/10 01:47:44;;;;;;;39.65;6.97;;;;;;;7.82;100.00;98914.19;4935518;28;20043;-83
2023/12/10 01:50:12;;;;;;;49.45;7.10;;;;;;;7.83;100.00;98918.50;4948023;28;20043;-83
2023/12/10 01:52:40;;;;;;;37.78;4.35;;;;;;;7.82;100.00;98925.59;4965344;28;20051;-83
2023/12/10 01:55:09;;;;;;;30.90;3.97;;;;;;;7.83;100.00;98934.34;4963634;28;20106;-83
2023/12/10 01:57:36;;;;;;;44.00;5.13;;;;;;;7.82;100.00;98943.25;4939527;28;20059;-83
2023/12/10 02:00:07;;;;;;;48.03;4.88;;;;;;;7.85;100.00;98944.78;4949586;28;20105;-84
2023/12/10 02:02:42;;;;;;;31.83;5.15;;;;;;;7.84;100.00;98957.19;4949921;28;20047;-83
2023/12/10 02:05:09;;;;;;;31.05;5.00;;;;;;;7.86;100.00;98957.88;4962767;28;20058;-83
2023/12/10 02:07:36;;;;;;;39.22;4.60;;;;;;;7.86;100.00;98972.88;4957663;28;20129;-83
2023/12/10 02:10:05;;;;;;;36.28;5.25;;;;;;;7.86;100.00;98963.16;4949296;28;20093;-84
2023/12/10 02:12:33;;;;;;;52.90;10.02;;;;;;;7.82;100.00;98972.34;4949471;28;20049;-83
2023/12/10 02:15:19;;;;;;;33.17;4.80;;;;;;;7.83;100.00;98984.56;4950228;28;20066;-83
2023/12/10 02:17:48;;;;;;;34.20;4.53;;;;;;;7.90;100.00;98977.75;4931558;28;20074;-83
2023/12/10 02:20:16;;;;;;;39.10;5.78;;;;;;;7.91;100.00;98984.72;4952434;28;20065;-83
2023/12/10 02:23:07;;;;;;;48.17;5.50;;;;;;;7.88;100.00;98979.69;4936453;28;20699;-84
2023/12/10 02:25:34;;;;;;;24.83;4.43;;;;;;;7.93;100.00;98974.81;4927675;28;20402;-84
2023/12/10 02:28:03;;;;;;;30.73;4.65;;;;;;;7.92;100.00;98977.63;4923139;28;20141;-84
2023/12/10 02:30:30;;;;;;;43.50;6.25;;;;;;;7.92;100.00;98985.56;4932844;28;20193;-83
2023/12/10 02:32:57;;;;;;;47.03;4.88;;;;;;;7.91;100.00;98987.38;4965975;28;20143;-83
2023/12/10 02:35:24;;;;;;;34.70;4.63;;;;;;;7.92;100.00;98986.38;4949819;28;20122;-83
2023/12/10 02:37:51;;;;;;;52.85;4.82;;;;;;;7.92;100.00;98993.47;4951560;28;20055;-83
2023/12/10 02:40:18;;;;;;;32.85;4.40;;;;;;;7.93;100.00;99008.34;4962471;28;20051;-83
2023/12/10 02:42:45;;;;;;;49.10;4.10;;;;;;;7.94;100.00;99010.03;4940305;28;20442;-84
2023/12/10 02:45:13;;;;;;;25.52;4.03;;;;;;;7.93;100.00;99011.81;4935990;28;20401;-83
2023/12/10 02:47:40;;;;;;;43.08;6.28;;;;;;;7.89;100.00;99007.81;4949739;28;20142;-83
2023/12/10 02:50:08;;;;;;;39.10;3.85;;;;;;;7.92;100.00;99009.34;4934123;28;20043;-83
2023/12/10 02:52:36;;;;;;;33.47;4.47;;;;;;;7.86;100.00;99017.81;4949041;28;20066;-83
2023/12/10 02:55:03;;;;;;;33.58;4.97;;;;;;;7.90;100.00;99025.31;4948063;28;20053;-83
2023/12/10 02:57:30;;;;;;;32.92;4.80;;;;;;;7.93;100.00;99032.16;4947689;28;20047;-83
2023/12/10 02:59:57;;;;;;;38.15;4.57;;;;;;;7.94;100.00;99044.41;4949271;28;20058;-83
2023/12/10 03:02:24;;;;;;;36.03;4.57;;;;;;;7.92;100.00;99052.47;4949825;28;20054;-81
2023/12/10 03:04:52;;;;;;;39.75;4.18;;;;;;;7.94;100.00;99079.59;4954186;28;20787;-82
2023/12/10 03:07:18;;;;;;;32.17;4.40;;;;;;;7.94;100.00;99100.75;4935401;28;20046;-82
2023/12/10 03:09:45;;;;;;;35.92;5.57;;;;;;;7.94;100.00;99105.22;4961280;28;20070;-81
2023/12/10 03:12:12;;;;;;;27.10;3.78;;;;;;;7.91;100.00;99116.91;4933574;28;20100;-82
2023/12/10 03:14:39;;;;;;;28.27;4.07;;;;;;;7.92;100.00;99080.72;4963737;28;20073;-81
2023/12/10 03:17:06;;;;;;;23.75;3.28;;;;;;;7.82;100.00;99078.88;4954404;28;20088;-81
2023/12/10 03:19:33;;;;;;;24.48;3.08;;;;;;;7.83;100.00;99099.03;4931190;28;20047;-81
2023/12/10 03:22:00;;;;;;;20.88;2.95;;;;;;;7.81;100.00;99095.72;4963329;28;20039;-80
2023/12/10 03:24:27;;;;;;;20.70;2.55;;;;;;;7.81;100.00;99094.88;4949152;28;20460;-81
2023/12/10 03:26:54;;;;;;;18.05;2.63;;;;;;;7.81;100.00;99102.78;4933154;28;20043;-80
2023/12/10 03:29:21;;;;;;;9.95;1.75;;;;;;;7.71;100.00;99101.94;4946209;28;20057;-81
2023/12/10 03:31:47;;;;;;;17.10;1.92;;;;;;;7.75;100.00;99101.53;4952833;28;20050;-80
2023/12/10 03:34:14;;;;;;;16.65;3.20;;;;;;;7.71;100.00;99102.78;4935215;28;20065;-81
2023/12/10 03:36:41;;;;;;;17.83;2.85;;;;;;;7.74;100.00;99101.69;4934863;28;20105;-81
2023/12/10 03:39:08;;;;;;;22.27;3.22;;;;;;;7.75;100.00;99098.88;4948571;28;20126;-80
2023/12/10 03:41:35;;;;;;;27.25;3.50;;;;;;;7.70;100.00;99095.81;4936367;28;20054;-81
2023/12/10 03:44:02;;;;;;;22.10;3.50;;;;;;;7.70;100.00;99108.19;4932525;28;20517;-81
2023/12/10 03:46:28;;;;;;;15.70;2.72;;;;;;;7.72;100.00;99098.34;4939027;28;20047;-82
2023/12/10 03:48:55;;;;;;;28.55;3.38;;;;;;;7.73;100.00;99108.75;4935440;28;20474;-81
2023/12/10 03:51:22;;;;;;;23.92;3.63;;;;;;;7.72;100.00;99109.75;4933288;28;20051;-81
2023/12/10 03:53:49;;;;;;;19.52;3.10;;;;;;;7.73;100.00;99124.63;4939165;28;20054;-81
2023/12/10 03:56:16;;;;;;;21.92;3.10;;;;;;;7.73;100.00;99129.06;4917888;28;20067;-81
2023/12/10 03:58:42;;;;;;;29.83;3.92;;;;;;;7.74;100.00;99136.88;4932232;28;20051;-81
2023/12/10 04:01:09;;;;;;;13.40;3.05;;;;;;;7.74;100.00;99139.53;4915112;28;20054;-81
2023/12/10 04:03:36;;;;;;;23.55;4.10;;;;;;;7.74;100.00;99134.22;4937655;28;20046;-81
2023/12/10 04:06:03;;;;;;;20.50;3.47;;;;;;;7.71;100.00;99136.28;4922512;28;20039;-81
2023/12/10 04:08:30;;;;;;;17.38;2.65;;;;;;;7.72;100.00;99141.44;4949179;28;20046;-81
2023/12/10 04:10:57;;;;;;;33.38;3.70;;;;;;;7.74;100.00;99143.97;4935997;28;20050;-81
2023/12/10 04:13:24;;;;;;;18.80;2.67;;;;;;;7.75;100.00;99148.28;4930087;28;20805;-81
2023/12/10 04:15:50;;;;;;;21.80;2.60;;;;;;;7.70;100.00;99158.41;4930003;28;20129;-81
2023/12/10 04:18:17;;;;;;;23.00;4.13;;;;;;;7.72;100.00;99185.53;4930658;28;20126;-81
2023/12/10 04:20:44;;;;;;;39.50;5.05;;;;;;;7.64;100.00;99194.13;4961413;28;20158;-81
2023/12/10 04:23:11;;;;;;;30.67;3.25;;;;;;;7.63;100.00;99181.06;4946971;28;20521;-81
2023/12/10 04:25:38;;;;;;;29.10;3.67;;;;;;;7.66;100.00;99175.50;4964049;28;20525;-81
2023/12/10 04:28:06;;;;;;;41.03;4.97;;;;;;;7.63;100.00;99197.72;4934220;28;20105;-81
2023/12/10 04:30:33;;;;;;;27.42;3.42;;;;;;;7.66;100.00;99191.34;4947603;28;20057;-81
2023/12/10 04:33:00;;;;;;;26.55;3.60;;;;;;;7.68;100.00;99195.53;4951335;28;20054;-80
2023/12/10 04:35:27;;;;;;;28.27;3.30;;;;;;;7.67;100.00;99191.22;4945420;28;20051;-80
2023/12/10 04:37:54;;;;;;;27.88;4.10;;;;;;;7.70;100.00;99183.03;4963337;28;20050;-80
2023/12/10 04:40:21;;;;;;;34.38;4.00;;;;;;;7.70;100.00;99187.47;4955962;28;20066;-80
2023/12/10 04:42:49;;;;;;;25.13;3.72;;;;;;;7.72;100.00;99185.53;4948215;28;20041;-80
2023/12/10 04:45:16;;;;;;;42.47;4.60;;;;;;;7.73;100.00;99181.91;4944646;28;20039;-80
2023/12/10 04:47:43;;;;;;;37.53;4.78;;;;;;;7.73;100.00;99195.13;4915892;28;20062;-81
2023/12/10 04:50:11;;;;;;;28.98;3.80;;;;;;;7.74;100.00;99183.63;4936698;28;20047;-81
2023/12/10 04:52:38;;;;;;;35.15;3.95;;;;;;;7.74;100.00;99184.44;4951493;28;20165;-81
2023/12/10 04:55:05;;;;;;;22.83;3.60;;;;;;;7.74;100.00;99187.09;4955566;28;20470;-81
2023/12/10 04:57:31;;;;;;;35.42;4.18;;;;;;;7.75;100.00;99186.09;4950463;28;20051;-81
2023/12/10 04:59:58;;;;;;;37.53;6.10;;;;;;;7.75;100.00;99194.03;4945302;28;20058;-81
2023/12/10 05:02:25;;;;;;;29.58;3.90;;;;;;;7.75;100.00;99199.31;4951168;28;20098;-81
2023/12/10 05:04:52;;;;;;;27.08;4.45;;;;;;;7.74;100.00;99196.81;4935836;28;20078;-81
2023/12/10 05:07:19;;;;;;;27.63;3.45;;;;;;;7.76;100.00;99194.88;4942736;28;20062;-81
2023/12/10 05:09:46;;;;;;;34.38;3.08;;;;;;;7.76;100.00;99201.00;4966688;28;20049;-81
2023/12/10 05:12:13;;;;;;;41.20;5.50;;;;;;;7.77;100.00;99210.59;4965666;28;20094;-81
2023/12/10 05:14:40;;;;;;;27.13;3.63;;;;;;;7.76;100.00;99206.28;4936873;28;20049;-81
2023/12/10 05:17:06;;;;;;;39.50;3.55;;;;;;;7.76;100.00;99208.06;4965148;28;20043;-81
2023/12/10 05:19:33;;;;;;;23.40;3.38;;;;;;;7.76;100.00;99197.50;4965272;28;20065;-81
2023/12/10 05:22:00;;;;;;;27.95;4.53;;;;;;;7.76;100.00;99200.16;4952121;28;20043;-81
2023/12/10 05:24:27;;;;;;;40.58;4.03;;;;;;;7.76;100.00;99208.06;4966030;28;20070;-81
2023/12/10 05:26:54;;;;;;;39.83;5.35;;;;;;;7.76;100.00;99205.44;4938592;28;20062;-80
2023/12/10 05:29:21;;;;;;;28.40;3.92;;;;;;;7.75;100.00;99191.38;4922509;28;20394;-80
2023/12/10 05:31:47;;;;;;;21.55;3.22;;;;;;;7.75;100.00;99198.50;4960042;28;20038;-81
2023/12/10 05:34:14;;;;;;;34.63;4.00;;;;;;;7.67;100.00;99196.50;4963415;28;20067;-81
2023/12/10 05:36:41;;;;;;;30.15;3.67;;;;;;;7.72;100.00;99210.16;4967656;28;20043;-81
2023/12/10 05:39:08;;;;;;;41.70;4.18;;;;;;;7.72;100.00;99210.16;4949053;28;20098;-81
2023/12/10 05:41:35;;;;;;;33.55;3.88;;;;;;;7.76;100.00;99210.72;4943209;28;20074;-82
2023/12/10 05:44:02;;;;;;;34.08;4.63;;;;;;;7.78;100.00;99219.34;4919608;28;20039;-81
2023/12/10 06:45:03;;;;;;;29.30;3.85;;;;;;;7.48;100.00;99345.22;6061645;23;20062;-87
2023/12/10 06:47:30;;;;;;;25.67;3.42;;;;;;;7.49;100.00;99346.03;6064149;23;20038;-87
2023/12/10 06:49:57;;;;;;;31.67;4.07;;;;;;;7.53;100.00;99355.38;6089491;23;20023;-87
2023/12/10 06:52:23;;;;;;;22.15;3.85;;;;;;;7.55;100.00;99377.22;6041419;23;20102;-84
2023/12/10 06:54:51;;;;;;;32.83;4.55;;;;;;;7.57;100.00;99373.50;6064984;23;20090;-84
2023/12/10 06:57:18;;;;;;;31.90;3.78;;;;;;;7.57;100.00;99362.91;6089636;23;20395;-83
2023/12/10 06:59:44;;;;;;;32.78;4.88;;;;;;;7.57;100.00;99362.91;6017286;23;20442;-84
2023/12/10 07:02:11;;;;;;;27.13;3.15;;;;;;;7.62;100.00;99367.81;6065459;23;20439;-84
2023/12/10 07:04:38;;;;;;;31.33;2.92;;;;;;;7.64;100.00;99381.75;6065975;23;20065;-84
2023/12/10 07:07:05;;;;;;;30.92;3.42;;;;;;;7.64;100.00;99384.41;6065745;23;20063;-84
2023/12/10 07:09:32;;;;;;;32.53;3.97;;;;;;;7.65;100.00;99385.22;6065061;23;20057;-84
2023/12/10 07:11:58;;;;;;;22.65;4.38;;;;;;;7.66;100.00;99398.31;5995136;23;20102;-84
2023/12/10 07:14:25;;;;;;;26.98;4.03;;;;;;;7.65;100.00;99394.00;6089136;23;20085;-84
2023/12/10 07:16:52;;;;;;;22.27;3.08;;;;;;;7.71;100.00;99406.72;6066054;23;20490;-84
2023/12/10 07:19:19;;;;;;;21.05;3.00;;;;;;;7.72;100.00;99404.91;6041416;23;20468;-84
2023/12/10 07:21:48;;;;;;;34.67;4.55;;;;;;;7.68;100.00;99399.00;6064834;23;20358;-84
2023/12/10 07:24:15;;;;;;;23.40;3.55;;;;;;;7.72;100.00;99413.66;6041364;23;20050;-85
2023/12/10 07:26:42;;;;;;;38.40;6.43;;;;;;;7.77;100.00;99418.56;6065196;23;20481;-84
2023/12/10 07:29:09;;;;;;;32.70;5.38;;;;;;;7.76;100.00;99432.72;6088750;23;20027;-84
2023/12/10 07:31:36;;;;;;;29.55;10.77;;;;;;;7.75;100.00;99415.22;6041027;23;20030;-85
2023/12/10 07:34:02;;;;;;;32.78;5.15;;;;;;;7.78;100.00;99425.50;6019068;23;20027;-84
2023/12/10 07:36:30;;;;;;;28.35;5.00;;;;;;;7.80;100.00;99418.31;6065299;23;20027;-85
2023/12/10 07:38:56;;;;;;;35.00;4.47;;;;;;;7.78;100.00;99415.78;6069403;23;20024;-85
2023/12/10 07:41:23;;;;;;;24.27;3.83;;;;;;;7.81;100.00;99434.03;6116512;23;20043;-85
2023/12/10 07:43:50;;;;;;;25.30;2.88;;;;;;;7.82;100.00;99440.16;6117656;23;20053;-84
2023/12/10 07:46:17;;;;;;;21.02;2.55;;;;;;;7.86;100.00;99446.03;6142244;23;20014;-84
2023/12/10 07:48:44;;;;;;;22.33;3.17;;;;;;;7.85;100.00;99445.19;6140058;23;20026;-85
2023/12/10 07:51:12;;;;;;;22.25;4.60;;;;;;;7.78;98.65;99452.78;6117383;23;20033;-84
2023/12/10 07:53:41;;;;;;;21.90;3.10;;;;;;;7.86;100.00;99446.88;6093232;23;20018;-84
2023/12/10 07:56:09;;;;;;;19.65;3.22;;;;;;;7.89;100.00;99456.38;6116449;23;20028;-83
2023/12/10 07:58:36;;;;;;;27.23;4.20;;;;;;;7.89;100.00;99449.25;6140399;23;20030;-84
2023/12/10 08:01:03;;;;;;;23.65;3.63;;;;;;;7.92;100.00;99459.56;6116597;23;20026;-84
2023/12/10 08:03:30;;;;;;;27.45;3.63;;;;;;;7.93;100.00;99449.84;6166041;23;20032;-83
2023/12/10 08:05:57;;;;;;;25.92;2.95;;;;;;;7.95;100.00;99456.66;6116598;23;20093;-84
2023/12/10 08:08:24;;;;;;;23.55;3.95;;;;;;;7.95;100.00;99459.31;6115437;23;20022;-85
2023/12/10 08:10:51;;;;;;;32.33;4.03;;;;;;;7.88;98.42;99467.88;6116865;23;20022;-85
2023/12/10 08:13:20;;;;;;;20.92;3.05;;;;;;;7.98;100.00;99464.34;6068873;23;20021;-83
2023/12/10 08:15:46;;;;;;;30.75;4.38;;;;;;;7.97;100.00;99467.13;6164737;23;20038;-84
2023/12/10 08:18:13;;;;;;;29.63;3.70;;;;;;;8.01;100.00;99469.41;6092190;23;20038;-84
2023/12/10 08:20:41;;;;;;;24.63;3.13;;;;;;;8.01;100.00;99477.31;6114917;23;20030;-83
2023/12/10 08:23:07;;;;;;;23.50;3.05;;;;;;;8.00;99.62;99470.34;6140807;23;20405;-84
2023/12/10 08:25:34;;;;;;;23.63;3.28;;;;;;;8.05;100.00;99475.25;6091989;23;20026;-84
2023/12/10 08:28:01;;;;;;;28.67;4.13;;;;;;;8.03;99.06;99483.31;6090966;23;20026;-83
2023/12/10 08:30:28;;;;;;;29.05;4.10;;;;;;;8.08;99.18;99482.09;6090578;23;20341;-84
2023/12/10 08:32:55;;;;;;;26.40;3.45;;;;;;;8.05;99.31;99481.38;6091652;23;20093;-84
2023/12/10 08:35:22;;;;;;;21.88;2.78;;;;;;;8.09;98.96;99489.03;6140155;23;20029;-83
2023/12/10 08:37:52;;;;;;;24.20;3.28;;;;;;;8.08;98.92;99490.84;6113255;23;20046;-84
2023/12/10 08:40:19;;;;;;;22.52;4.00;;;;;;;8.11;99.03;99493.25;6092297;23;20032;-85
2023/12/10 08:42:46;;;;;;;31.10;3.55;;;;;;;8.13;99.17;99501.06;6116807;23;20086;-83
2023/12/10 08:45:13;;;;;;;25.50;3.67;;;;;;;8.14;99.10;99510.66;6066967;23;20350;-84
2023/12/10 08:47:40;;;;;;;16.88;2.47;;;;;;;8.14;98.49;99510.66;6138286;23;20036;-87
2023/12/10 08:50:08;;;;;;;26.10;3.30;;;;;;;8.13;97.83;99519.56;6070975;23;20030;-83
2023/12/10 08:52:35;;;;;;;15.18;2.95;;;;;;;8.15;98.49;99522.94;6087944;23;20026;-83
2023/12/10 08:55:02;;;;;;;24.42;3.50;;;;;;;8.17;98.27;99528.94;6116261;23;20041;-83
2023/12/10 08:57:29;;;;;;;24.58;3.40;;;;;;;8.17;98.43;99523.66;6091428;23;20018;-83
2023/12/10 09:00:00;;;;;;;21.33;2.55;;;;;;;8.18;98.41;99523.50;6115488;23;20387;-84
2023/12/10 09:02:28;;;;;;;18.83;2.78;;;;;;;8.22;98.75;99524.94;6089848;23;20089;-84
2023/12/10 09:04:56;;;;;;;29.60;3.45;;;;;;;8.22;98.64;99530.22;6115050;23;20515;-83
2023/12/10 09:07:23;;;;;;;25.42;3.50;;;;;;;8.25;98.58;99539.72;6115253;23;20022;-83
2023/12/10 09:09:49;;;;;;;17.45;3.80;;;;;;;8.33;96.94;99537.25;6090311;23;20029;-83
2023/12/10 09:12:28;;;;;;;27.88;4.28;;;;;;;8.25;97.13;99540.53;6076198;23;20025;-84
2023/12/10 09:14:56;;;;;;;21.00;3.10;;;;;;;8.30;97.90;99547.25;6057085;23;20513;-81
2023/12/10 09:17:23;;;;;;;25.10;3.58;;;;;;;8.30;97.37;99558.69;6134602;23;20483;-83
2023/12/10 09:19:49;;;;;;;23.60;3.78;;;;;;;8.35;98.29;99563.59;6137557;23;20085;-83
2023/12/10 09:22:16;;;;;;;23.70;4.43;;;;;;;8.38;97.95;99565.97;6114394;23;20454;-82
2023/12/10 09:24:43;;;;;;;27.80;3.50;;;;;;;8.33;96.91;99554.94;6112978;23;20037;-83
2023/12/10 09:27:10;;;;;;;18.40;2.92;;;;;;;8.38;97.49;99580.03;6162342;23;20026;-83
2023/12/10 09:29:42;;;;;;;22.55;3.45;;;;;;;8.41;97.96;99563.94;6161986;23;20026;-83
2023/12/10 09:32:09;;;;;;;19.38;3.45;;;;;;;8.40;97.70;99577.31;6090049;23;20111;-83
2023/12/10 09:34:35;;;;;;;23.00;3.20;;;;;;;8.42;97.65;99568.28;6162685;23;20089;-82
2023/12/10 09:37:03;;;;;;;28.10;3.33;;;;;;;8.42;97.45;99568.28;6113767;23;20022;-84
2023/12/10 09:39:31;;;;;;;17.92;3.92;;;;;;;8.42;96.98;99568.28;6087716;23;20081;-83
2023/12/10 09:41:58;;;;;;;30.13;4.55;;;;;;;8.46;97.47;99556.44;6162506;23;20041;-83
2023/12/10 09:44:24;;;;;;;22.60;3.67;;;;;;;8.47;96.72;99558.16;6089017;23;20032;-82
2023/12/10 09:46:51;;;;;;;18.27;3.38;;;;;;;8.50;96.30;99570.28;6162278;23;20443;-85
2023/12/10 09:49:18;;;;;;;23.10;3.28;;;;;;;8.55;96.83;99564.56;6113442;23;20022;-86
2023/12/10 09:51:46;;;;;;;24.08;3.42;;;;;;;8.59;96.96;99568.66;6113723;23;20080;-86
2023/12/10 09:54:13;;;;;;;17.65;3.10;;;;;;;8.51;94.63;99571.94;6114320;23;20026;-87
2023/12/10 09:56:40;;;;;;;22.13;2.92;;;;;;;8.58;96.06;99582.88;6113633;23;20093;-86
2023/12/10 09:59:08;;;;;;;23.20;3.00;;;;;;;8.58;95.50;99574.94;6088522;23;20465;-87
2023/12/10 10:01:38;;;;;;;22.00;2.83;;;;;;;8.58;96.30;99566.97;6111903;23;20048;-88
2023/12/10 10:04:04;;;;;;;16.08;2.70;;;;;;;8.60;95.83;99573.81;6114592;23;20878;-88
2023/12/10 10:06:32;;;;;;;23.38;3.03;;;;;;;8.59;95.48;99593.31;6113188;23;20113;-86
2023/12/10 10:08:59;;;;;;;22.27;2.65;;;;;;;8.59;95.99;99584.53;6137092;23;20032;-89
2023/12/10 10:11:26;;;;;;;28.83;3.40;;;;;;;8.59;95.98;99589.81;6113586;23;20441;-88
2023/12/10 10:13:53;;;;;;;28.88;3.55;;;;;;;8.56;95.62;99585.63;6161973;23;20085;-87
2023/12/10 10:16:20;;;;;;;25.55;4.25;;;;;;;8.62;96.07;99584.25;6162483;23;20114;-86
2023/12/10 10:18:47;;;;;;;24.17;5.20;;;;;;;8.56;95.75;99590.09;6161286;23;20022;-87
2023/12/10 10:21:15;;;;;;;23.70;3.42;;;;;;;8.60;96.49;99586.19;6090286;23;20093;-86
2023/12/10 10:23:42;;;;;;;26.38;3.63;;;;;;;8.60;96.35;99594.13;6065280;23;20074;-87
2023/12/10 10:26:11;;;;;;;31.27;4.53;;;;;;;8.59;95.95;99585.38;6114702;23;20033;-87
2023/12/10 10:28:37;;;;;;;23.60;3.22;;;;;;;8.60;96.45;99584.41;6087617;23;20454;-86
2023/12/10 10:31:05;;;;;;;24.63;3.35;;;;;;;8.60;96.52;99594.13;6089419;23;20450;-90
2023/12/10 10:33:32;;;;;;;30.35;4.65;;;;;;;8.61;96.69;99595.84;6139470;23;20080;-90
2023/12/10 10:36:00;;;;;;;34.60;4.00;;;;;;;8.63;96.72;99578.03;6092423;23;20073;-91
2023/12/10 10:38:28;;;;;;;21.83;2.45;;;;;;;8.61;95.98;99587.91;6115688;23;20033;-92
2023/12/10 10:41:01;;;;;;;26.77;4.85;;;;;;;8.60;95.89;99579.13;6114603;23;20063;-91
2023/12/10 10:43:27;;;;;;;28.27;3.92;;;;;;;8.58;95.81;99589.00;6065995;23;20062;-91
2023/12/10 10:45:55;;;;;;;17.25;4.10;;;;;;;8.60;96.09;99587.06;6139601;23;20408;-88
2023/12/10 10:48:26;;;;;;;10.90;2.85;;;;;;;8.62;96.22;99586.91;6140078;23;20074;-93
2023/12/10 10:50:54;;;;;;;28.83;3.97;;;;;;;8.65;96.37;99573.41;6140337;23;20034;-90
2023/12/10 10:53:22;;;;;;;22.27;3.50;;;;;;;8.67;96.32;99555.59;6115253;23;20021;-91
2023/12/10 10:55:49;;;;;;;39.25;5.28;;;;;;;8.63;96.21;99539.16;6163856;23;20025;-90
2023/12/10 10:58:39;;;;;;;29.42;4.22;;;;;;;8.59;95.42;99550.97;6115445;23;20029;-92
2023/12/10 11:01:35;;;;;;;24.15;3.28;;;;;;;8.62;95.35;99548.03;6114041;23;20034;-87
2023/12/10 11:04:03;;;;;;;32.92;4.55;;;;;;;8.65;96.19;99554.88;6110959;23;20018;-80
2023/12/10 11:06:30;;;;;;;30.55;3.95;;;;;;;8.62;95.70;99555.16;6111339;23;20029;-80
2023/12/10 11:09:00;;;;;;;16.40;3.60;;;;;;;8.65;95.87;99554.88;6085600;23;20473;-82
2023/12/10 11:11:27;;;;;;;17.45;2.97;;;;;;;8.66;95.94;99553.94;6087381;23;20029;-80
2023/12/10 11:13:57;;;;;;;18.85;2.83;;;;;;;8.64;95.14;99553.22;6085992;23;20080;-81
2023/12/10 11:16:24;;;;;;;25.10;2.97;;;;;;;8.67;95.18;99559.06;6111954;23;20473;-79
2023/12/10 11:18:52;;;;;;;22.63;2.95;;;;;;;8.65;94.96;99558.41;6088861;23;20093;-80
2023/12/10 11:21:20;;;;;;;23.55;2.80;;;;;;;8.72;95.53;99563.16;6089674;23;20864;-80
2023/12/10 11:23:47;;;;;;;13.98;2.70;;;;;;;8.73;94.90;99570.13;6112931;23;20022;-78
2023/12/10 11:26:14;;;;;;;26.75;4.05;;;;;;;8.69;95.04;99574.84;6064481;23;20026;-80
2023/12/10 11:28:42;;;;;;;17.35;3.10;;;;;;;8.73;95.26;99584.22;6087837;23;20040;-82
2023/12/10 11:31:09;;;;;;;22.60;3.10;;;;;;;8.74;94.69;99587.69;6162234;23;20539;-79
2023/12/10 11:33:41;;;;;;;25.73;3.72;;;;;;;8.73;95.15;99593.94;6137715;23;20690;-80
2023/12/10 11:36:09;;;;;;;28.88;5.65;;;;;;;8.65;94.24;99578.72;6137739;23;20093;-80
2023/12/10 11:38:56;;;;;;;21.65;3.78;;;;;;;8.75;95.69;99584.94;6112330;23;20026;-80
2023/12/10 11:41:28;;;;;;;16.88;2.75;;;;;;;8.74;95.32;99585.06;6135656;23;20156;-79
2023/12/10 11:43:54;;;;;;;17.05;3.05;;;;;;;8.76;95.36;99570.72;6065403;23;20057;-80
2023/12/10 11:46:23;;;;;;;19.85;2.90;;;;;;;8.76;95.33;99569.88;6137943;23;20489;-79
2023/12/10 11:49:04;;;;;;;13.88;3.15;;;;;;;8.78;95.69;99576.72;6110077;23;20048;-78
2023/12/10 11:51:31;;;;;;;28.08;5.35;;;;;;;8.79;95.61;99582.84;6137217;23;20052;-79
2023/12/10 11:53:58;;;;;;;28.23;7.90;;;;;;;8.79;95.47;99577.56;6137765;23;20029;-78
2023/12/10 11:56:24;;;;;;;23.85;5.60;;;;;;;8.78;96.00;99589.13;6138289;23;20013;-79
2023/12/10 11:58:51;;;;;;;26.70;4.43;;;;;;;8.80;95.87;99590.69;6137162;23;20037;-79
2023/12/10 12:01:18;;;;;;;22.50;4.20;;;;;;;8.80;95.92;99598.63;6137841;23;20800;-81
2023/12/10 12:03:45;;;;;;;21.50;5.65;;;;;;;8.80;96.22;99589.81;6163056;23;20081;-78
2023/12/10 12:06:12;;;;;;;21.67;5.07;;;;;;;8.82;96.06;99585.22;6109131;23;20022;-79
2023/12/10 12:08:39;;;;;;;28.65;4.55;;;;;;;8.81;95.95;99579.09;6063485;23;20025;-80
2023/12/10 12:11:06;;;;;;;17.75;4.15;;;;;;;8.83;96.21;99584.28;6065372;23;20101;-80
2023/12/10 12:13:33;;;;;;;19.23;3.00;;;;;;;8.83;95.97;99585.13;6138069;23;20022;-80
2023/12/10 12:16:00;;;;;;;28.25;4.90;;;;;;;8.81;95.90;99587.03;6138387;23;20026;-84
2023/12/10 12:18:27;;;;;;;17.63;4.05;;;;;;;8.83;96.17;99571.88;6093031;23;20025;-89
2023/12/10 12:20:54;;;;;;;24.50;3.55;;;;;;;8.81;95.99;99568.50;6165047;23;20084;-89
2023/12/10 12:23:21;;;;;;;24.38;4.05;;;;;;;8.78;95.60;99568.78;6118616;23;20349;-92
2023/12/10 12:25:48;;;;;;;26.45;3.97;;;;;;;8.75;95.50;99562.88;6168904;23;20026;-91
2023/12/10 12:28:17;;;;;;;28.85;3.53;;;;;;;8.81;95.99;99563.22;6093892;23;20026;-92
2023/12/10 12:30:44;;;;;;;15.77;4.70;;;;;;;8.82;95.97;99566.69;6092825;23;20083;-92